sensor_id;sensor_type;location;lat;lon;timestamp;P1;durP1;ratioP1;P2;durP2;ratioP2
47167;SDS011;32931;47.778;17.806;2022-09-24T00:01:13;12.30;;;5.43;;
47167;SDS011;32931;47.778;17.806;2022-09-24T00:03:41;9.10;;;5.88;;
47167;SDS011;32931;47.778;17.806;2022-09-24T00:06:11;8.70;;;5.28;;
47167;SDS011;32931;47.778;17.806;2022-09-24T00:08:47;9.48;;;6.15;;
47167;SDS011;32931;47.778;17.806;2022-09-24T00:11:14;9.45;;;5.88;;
47167;SDS011;32931;47.778;17.806;2022-09-24T00:13:42;8.95;;;5.88;;
47167;SDS011;32931;47.778;17.806;2022-09-24T00:16:10;8.82;;;6.32;;
47167;SDS011;32931;47.778;17.806;2022-09-24T00:18:37;10.32;;;6.43;;
47167;SDS011;32931;47.778;17.806;2022-09-24T00:21:38;11.00;;;5.32;;
47167;SDS011;32931;47.778;17.806;2022-09-24T00:23:59;10.73;;;6.00;;
47167;SDS011;32931;47.778;17.806;2022-09-24T00:26:28;11.88;;;5.65;;
47167;SDS011;32931;47.778;17.806;2022-09-24T00:29:14;11.15;;;5.63;;
47167;SDS011;32931;47.778;17.806;2022-09-24T00:31:42;12.60;;;6.07;;
47167;SDS011;32931;47.778;17.806;2022-09-24T00:34:08;11.63;;;6.13;;
47167;SDS011;32931;47.778;17.806;2022-09-24T00:36:35;11.50;;;6.60;;
47167;SDS011;32931;47.778;17.806;2022-09-24T00:39:02;13.52;;;6.53;;
47167;SDS011;32931;47.778;17.806;2022-09-24T00:41:30;9.90;;;6.10;;
47167;SDS011;32931;47.778;17.806;2022-09-24T00:43:58;9.05;;;6.05;;
47167;SDS011;32931;47.778;17.806;2022-09-24T00:49:14;12.80;;;6.80;;
47167;SDS011;32931;47.778;17.806;2022-09-24T00:51:43;11.80;;;6.20;;
47167;SDS011;32931;47.778;17.806;2022-09-24T00:54:16;11.10;;;6.75;;
47167;SDS011;32931;47.778;17.806;2022-09-24T00:56:47;10.25;;;6.85;;
47167;SDS011;32931;47.778;17.806;2022-09-24T00:59:16;9.95;;;6.40;;
47167;SDS011;32931;47.778;17.806;2022-09-24T01:01:45;10.70;;;6.85;;
47167;SDS011;32931;47.778;17.806;2022-09-24T01:04:13;14.05;;;6.50;;
47167;SDS011;32931;47.778;17.806;2022-09-24T01:06:40;8.63;;;6.05;;
47167;SDS011;32931;47.778;17.806;2022-09-24T01:09:07;8.98;;;5.88;;
47167;SDS011;32931;47.778;17.806;2022-09-24T01:11:48;9.50;;;6.07;;
47167;SDS011;32931;47.778;17.806;2022-09-24T01:14:25;9.25;;;5.95;;
47167;SDS011;32931;47.778;17.806;2022-09-24T01:26:12;11.23;;;5.25;;
47167;SDS011;32931;47.778;17.806;2022-09-24T01:34:06;8.60;;;6.20;;
47167;SDS011;32931;47.778;17.806;2022-09-24T01:39:06;9.05;;;6.47;;
47167;SDS011;32931;47.778;17.806;2022-09-24T01:41:34;11.68;;;7.15;;
47167;SDS011;32931;47.778;17.806;2022-09-24T01:44:03;10.93;;;6.82;;
47167;SDS011;32931;47.778;17.806;2022-09-24T01:46:32;9.07;;;6.60;;
47167;SDS011;32931;47.778;17.806;2022-09-24T01:49:02;11.43;;;6.85;;
47167;SDS011;32931;47.778;17.806;2022-09-24T01:51:45;16.80;;;7.60;;
47167;SDS011;32931;47.778;17.806;2022-09-24T01:54:22;11.73;;;7.60;;
47167;SDS011;32931;47.778;17.806;2022-09-24T01:56:54;12.97;;;7.77;;
47167;SDS011;32931;47.778;17.806;2022-09-24T02:02:37;17.60;;;6.95;;
47167;SDS011;32931;47.778;17.806;2022-09-24T02:05:22;11.88;;;6.78;;
47167;SDS011;32931;47.778;17.806;2022-09-24T02:13:20;11.32;;;7.38;;
47167;SDS011;32931;47.778;17.806;2022-09-24T02:15:51;10.13;;;6.68;;
47167;SDS011;32931;47.778;17.806;2022-09-24T02:18:23;15.05;;;7.00;;
47167;SDS011;32931;47.778;17.806;2022-09-24T02:20:53;9.73;;;6.60;;
47167;SDS011;32931;47.778;17.806;2022-09-24T02:23:21;12.18;;;7.32;;
47167;SDS011;32931;47.778;17.806;2022-09-24T02:25:59;10.02;;;6.20;;
47167;SDS011;32931;47.778;17.806;2022-09-24T02:28:29;12.95;;;8.50;;
47167;SDS011;32931;47.778;17.806;2022-09-24T02:31:39;12.52;;;8.20;;
47167;SDS011;32931;47.778;17.806;2022-09-24T02:33:56;11.63;;;7.15;;
47167;SDS011;32931;47.778;17.806;2022-09-24T02:36:45;12.02;;;6.97;;
47167;SDS011;32931;47.778;17.806;2022-09-24T02:39:16;11.50;;;6.28;;
47167;SDS011;32931;47.778;17.806;2022-09-24T02:41:46;11.60;;;6.65;;
47167;SDS011;32931;47.778;17.806;2022-09-24T02:44:15;10.45;;;6.57;;
47167;SDS011;32931;47.778;17.806;2022-09-24T02:46:42;8.02;;;6.43;;
47167;SDS011;32931;47.778;17.806;2022-09-24T02:49:09;9.90;;;6.50;;
47167;SDS011;32931;47.778;17.806;2022-09-24T02:51:36;10.10;;;6.22;;
47167;SDS011;32931;47.778;17.806;2022-09-24T02:54:03;10.68;;;6.13;;
47167;SDS011;32931;47.778;17.806;2022-09-24T02:56:29;12.45;;;6.60;;
47167;SDS011;32931;47.778;17.806;2022-09-24T02:58:56;9.27;;;6.50;;
47167;SDS011;32931;47.778;17.806;2022-09-24T03:01:22;9.23;;;6.13;;
47167;SDS011;32931;47.778;17.806;2022-09-24T03:03:49;8.90;;;5.57;;
47167;SDS011;32931;47.778;17.806;2022-09-24T03:06:16;11.30;;;5.80;;
47167;SDS011;32931;47.778;17.806;2022-09-24T03:08:42;11.02;;;5.95;;
47167;SDS011;32931;47.778;17.806;2022-09-24T03:11:09;14.63;;;6.00;;
47167;SDS011;32931;47.778;17.806;2022-09-24T03:13:36;12.45;;;6.25;;
47167;SDS011;32931;47.778;17.806;2022-09-24T03:16:04;9.23;;;5.80;;
47167;SDS011;32931;47.778;17.806;2022-09-24T03:18:31;8.95;;;6.07;;
47167;SDS011;32931;47.778;17.806;2022-09-24T03:21:03;10.27;;;5.55;;
47167;SDS011;32931;47.778;17.806;2022-09-24T03:23:31;14.13;;;6.32;;
47167;SDS011;32931;47.778;17.806;2022-09-24T03:25:57;16.75;;;6.40;;
47167;SDS011;32931;47.778;17.806;2022-09-24T03:28:24;16.02;;;6.20;;
47167;SDS011;32931;47.778;17.806;2022-09-24T03:30:50;7.57;;;5.53;;
47167;SDS011;32931;47.778;17.806;2022-09-24T03:33:32;9.40;;;5.80;;
47167;SDS011;32931;47.778;17.806;2022-09-24T03:36:11;11.82;;;5.88;;
47167;SDS011;32931;47.778;17.806;2022-09-24T03:38:38;8.40;;;5.30;;
47167;SDS011;32931;47.778;17.806;2022-09-24T03:41:06;11.93;;;5.50;;
47167;SDS011;32931;47.778;17.806;2022-09-24T03:43:33;19.45;;;6.40;;
47167;SDS011;32931;47.778;17.806;2022-09-24T03:46:02;17.38;;;6.22;;
47167;SDS011;32931;47.778;17.806;2022-09-24T03:48:32;12.73;;;6.07;;
47167;SDS011;32931;47.778;17.806;2022-09-24T03:51:06;7.63;;;5.20;;
47167;SDS011;32931;47.778;17.806;2022-09-24T03:53:34;7.30;;;5.43;;
47167;SDS011;32931;47.778;17.806;2022-09-24T03:56:00;8.10;;;5.25;;
47167;SDS011;32931;47.778;17.806;2022-09-24T03:58:31;9.70;;;5.90;;
47167;SDS011;32931;47.778;17.806;2022-09-24T04:01:00;9.75;;;5.13;;
47167;SDS011;32931;47.778;17.806;2022-09-24T04:03:27;10.80;;;4.95;;
47167;SDS011;32931;47.778;17.806;2022-09-24T04:05:53;10.15;;;4.93;;
47167;SDS011;32931;47.778;17.806;2022-09-24T04:08:20;7.45;;;4.55;;
47167;SDS011;32931;47.778;17.806;2022-09-24T04:10:47;7.40;;;4.72;;
47167;SDS011;32931;47.778;17.806;2022-09-24T04:13:14;7.43;;;4.82;;
47167;SDS011;32931;47.778;17.806;2022-09-24T04:15:41;7.10;;;4.63;;
47167;SDS011;32931;47.778;17.806;2022-09-24T04:18:07;7.78;;;4.90;;
47167;SDS011;32931;47.778;17.806;2022-09-24T04:20:34;6.97;;;4.90;;
47167;SDS011;32931;47.778;17.806;2022-09-24T04:23:01;7.63;;;4.72;;
47167;SDS011;32931;47.778;17.806;2022-09-24T04:25:29;9.63;;;4.55;;
47167;SDS011;32931;47.778;17.806;2022-09-24T04:27:58;5.68;;;3.95;;
47167;SDS011;32931;47.778;17.806;2022-09-24T04:30:26;8.02;;;4.22;;
47167;SDS011;32931;47.778;17.806;2022-09-24T04:32:53;8.23;;;4.70;;
47167;SDS011;32931;47.778;17.806;2022-09-24T04:35:20;5.85;;;4.13;;
47167;SDS011;32931;47.778;17.806;2022-09-24T04:37:48;7.13;;;4.45;;
47167;SDS011;32931;47.778;17.806;2022-09-24T04:40:15;19.55;;;5.00;;
47167;SDS011;32931;47.778;17.806;2022-09-24T04:42:42;8.43;;;4.30;;
47167;SDS011;32931;47.778;17.806;2022-09-24T04:45:12;9.55;;;4.90;;
47167;SDS011;32931;47.778;17.806;2022-09-24T04:47:40;6.60;;;4.70;;
47167;SDS011;32931;47.778;17.806;2022-09-24T04:50:08;6.32;;;4.53;;
47167;SDS011;32931;47.778;17.806;2022-09-24T04:52:36;5.82;;;3.95;;
47167;SDS011;32931;47.778;17.806;2022-09-24T04:55:03;7.10;;;4.15;;
47167;SDS011;32931;47.778;17.806;2022-09-24T04:57:30;9.63;;;4.82;;
47167;SDS011;32931;47.778;17.806;2022-09-24T05:00:04;8.52;;;4.30;;
47167;SDS011;32931;47.778;17.806;2022-09-24T05:02:33;8.15;;;4.10;;
47167;SDS011;32931;47.778;17.806;2022-09-24T05:04:59;7.57;;;4.10;;
47167;SDS011;32931;47.778;17.806;2022-09-24T05:07:25;7.70;;;4.53;;
47167;SDS011;32931;47.778;17.806;2022-09-24T05:09:51;9.00;;;4.22;;
47167;SDS011;32931;47.778;17.806;2022-09-24T05:12:17;10.38;;;4.68;;
47167;SDS011;32931;47.778;17.806;2022-09-24T05:14:45;13.40;;;4.13;;
47167;SDS011;32931;47.778;17.806;2022-09-24T05:17:11;14.00;;;4.13;;
47167;SDS011;32931;47.778;17.806;2022-09-24T05:19:37;7.38;;;3.90;;
47167;SDS011;32931;47.778;17.806;2022-09-24T05:22:03;20.58;;;12.30;;
47167;SDS011;32931;47.778;17.806;2022-09-24T05:24:30;24.77;;;12.07;;
47167;SDS011;32931;47.778;17.806;2022-09-24T05:26:56;21.33;;;11.65;;
47167;SDS011;32931;47.778;17.806;2022-09-24T05:29:37;20.10;;;8.82;;
47167;SDS011;32931;47.778;17.806;2022-09-24T05:34:35;12.60;;;4.13;;
47167;SDS011;32931;47.778;17.806;2022-09-24T05:37:01;5.10;;;3.58;;
47167;SDS011;32931;47.778;17.806;2022-09-24T05:39:28;5.80;;;4.10;;
47167;SDS011;32931;47.778;17.806;2022-09-24T05:41:55;6.35;;;3.90;;
47167;SDS011;32931;47.778;17.806;2022-09-24T05:44:22;13.63;;;3.80;;
47167;SDS011;32931;47.778;17.806;2022-09-24T05:46:49;7.05;;;3.70;;
47167;SDS011;32931;47.778;17.806;2022-09-24T05:49:16;8.20;;;3.80;;
47167;SDS011;32931;47.778;17.806;2022-09-24T05:51:43;8.38;;;3.80;;
47167;SDS011;32931;47.778;17.806;2022-09-24T05:54:09;15.40;;;4.20;;
47167;SDS011;32931;47.778;17.806;2022-09-24T05:56:36;8.75;;;3.88;;
47167;SDS011;32931;47.778;17.806;2022-09-24T05:59:03;7.95;;;3.72;;
47167;SDS011;32931;47.778;17.806;2022-09-24T06:01:29;11.63;;;3.92;;
47167;SDS011;32931;47.778;17.806;2022-09-24T06:03:56;11.20;;;3.83;;
47167;SDS011;32931;47.778;17.806;2022-09-24T06:06:23;7.45;;;4.20;;
47167;SDS011;32931;47.778;17.806;2022-09-24T06:08:50;5.72;;;3.80;;
47167;SDS011;32931;47.778;17.806;2022-09-24T06:11:17;5.90;;;3.47;;
47167;SDS011;32931;47.778;17.806;2022-09-24T06:13:49;5.45;;;3.55;;
47167;SDS011;32931;47.778;17.806;2022-09-24T06:16:16;7.05;;;3.80;;
47167;SDS011;32931;47.778;17.806;2022-09-24T06:18:43;5.97;;;3.47;;
47167;SDS011;32931;47.778;17.806;2022-09-24T06:21:11;6.32;;;4.05;;
47167;SDS011;32931;47.778;17.806;2022-09-24T06:23:39;9.40;;;3.97;;
47167;SDS011;32931;47.778;17.806;2022-09-24T06:26:06;7.65;;;3.63;;
47167;SDS011;32931;47.778;17.806;2022-09-24T06:28:35;5.22;;;3.90;;
47167;SDS011;32931;47.778;17.806;2022-09-24T06:31:02;5.47;;;3.75;;
47167;SDS011;32931;47.778;17.806;2022-09-24T06:33:29;5.80;;;3.80;;
47167;SDS011;32931;47.778;17.806;2022-09-24T06:35:58;6.88;;;3.53;;
47167;SDS011;32931;47.778;17.806;2022-09-24T06:38:25;8.23;;;4.00;;
47167;SDS011;32931;47.778;17.806;2022-09-24T06:40:52;5.97;;;4.07;;
47167;SDS011;32931;47.778;17.806;2022-09-24T06:43:22;5.25;;;3.67;;
47167;SDS011;32931;47.778;17.806;2022-09-24T06:45:48;7.30;;;4.05;;
47167;SDS011;32931;47.778;17.806;2022-09-24T06:48:15;8.52;;;3.90;;
47167;SDS011;32931;47.778;17.806;2022-09-24T06:50:43;6.03;;;3.60;;
47167;SDS011;32931;47.778;17.806;2022-09-24T06:53:10;9.30;;;4.32;;
47167;SDS011;32931;47.778;17.806;2022-09-24T06:55:37;8.82;;;4.32;;
47167;SDS011;32931;47.778;17.806;2022-09-24T06:58:05;10.85;;;4.57;;
47167;SDS011;32931;47.778;17.806;2022-09-24T07:00:32;8.65;;;4.00;;
47167;SDS011;32931;47.778;17.806;2022-09-24T07:03:00;9.57;;;4.50;;
47167;SDS011;32931;47.778;17.806;2022-09-24T07:05:26;10.90;;;4.50;;
47167;SDS011;32931;47.778;17.806;2022-09-24T07:07:52;8.35;;;4.72;;
47167;SDS011;32931;47.778;17.806;2022-09-24T07:10:18;7.32;;;4.78;;
47167;SDS011;32931;47.778;17.806;2022-09-24T07:12:45;9.82;;;4.78;;
47167;SDS011;32931;47.778;17.806;2022-09-24T07:15:11;14.43;;;5.00;;
47167;SDS011;32931;47.778;17.806;2022-09-24T07:17:37;6.90;;;4.25;;
47167;SDS011;32931;47.778;17.806;2022-09-24T07:20:04;7.35;;;4.72;;
47167;SDS011;32931;47.778;17.806;2022-09-24T07:22:31;8.05;;;4.63;;
47167;SDS011;32931;47.778;17.806;2022-09-24T07:25:02;9.70;;;4.65;;
47167;SDS011;32931;47.778;17.806;2022-09-24T07:27:28;8.07;;;4.35;;
47167;SDS011;32931;47.778;17.806;2022-09-24T07:29:54;10.82;;;4.78;;
47167;SDS011;32931;47.778;17.806;2022-09-24T07:32:21;10.65;;;4.70;;
47167;SDS011;32931;47.778;17.806;2022-09-24T07:34:47;8.65;;;4.40;;
47167;SDS011;32931;47.778;17.806;2022-09-24T07:37:13;10.88;;;4.85;;
47167;SDS011;32931;47.778;17.806;2022-09-24T07:39:40;10.73;;;4.93;;
47167;SDS011;32931;47.778;17.806;2022-09-24T07:42:06;13.18;;;4.60;;
47167;SDS011;32931;47.778;17.806;2022-09-24T07:44:32;11.00;;;4.32;;
47167;SDS011;32931;47.778;17.806;2022-09-24T07:46:58;5.97;;;3.83;;
47167;SDS011;32931;47.778;17.806;2022-09-24T07:49:25;7.78;;;4.20;;
47167;SDS011;32931;47.778;17.806;2022-09-24T07:51:53;8.65;;;4.03;;
47167;SDS011;32931;47.778;17.806;2022-09-24T07:54:19;10.43;;;4.75;;
47167;SDS011;32931;47.778;17.806;2022-09-24T07:56:45;4.88;;;3.90;;
47167;SDS011;32931;47.778;17.806;2022-09-24T07:59:12;10.55;;;4.22;;
47167;SDS011;32931;47.778;17.806;2022-09-24T08:01:38;6.47;;;3.42;;
47167;SDS011;32931;47.778;17.806;2022-09-24T08:04:05;9.52;;;4.30;;
47167;SDS011;32931;47.778;17.806;2022-09-24T08:06:34;7.65;;;3.72;;
47167;SDS011;32931;47.778;17.806;2022-09-24T08:09:01;7.47;;;4.68;;
47167;SDS011;32931;47.778;17.806;2022-09-24T08:11:28;10.20;;;4.25;;
47167;SDS011;32931;47.778;17.806;2022-09-24T08:13:55;8.50;;;3.97;;
47167;SDS011;32931;47.778;17.806;2022-09-24T08:16:22;12.45;;;3.80;;
47167;SDS011;32931;47.778;17.806;2022-09-24T08:18:50;9.27;;;3.33;;
47167;SDS011;32931;47.778;17.806;2022-09-24T08:21:16;11.45;;;4.40;;
47167;SDS011;32931;47.778;17.806;2022-09-24T08:23:43;11.95;;;4.53;;
47167;SDS011;32931;47.778;17.806;2022-09-24T08:26:10;16.88;;;3.95;;
47167;SDS011;32931;47.778;17.806;2022-09-24T08:28:37;5.70;;;3.45;;
47167;SDS011;32931;47.778;17.806;2022-09-24T08:31:07;14.38;;;3.65;;
47167;SDS011;32931;47.778;17.806;2022-09-24T08:33:35;5.97;;;3.30;;
47167;SDS011;32931;47.778;17.806;2022-09-24T08:36:03;10.88;;;4.07;;
47167;SDS011;32931;47.778;17.806;2022-09-24T08:38:31;7.78;;;3.05;;
47167;SDS011;32931;47.778;17.806;2022-09-24T08:46:12;4.80;;;2.90;;
47167;SDS011;32931;47.778;17.806;2022-09-24T08:49:12;8.05;;;2.78;;
47167;SDS011;32931;47.778;17.806;2022-09-24T08:54:23;4.38;;;2.35;;
47167;SDS011;32931;47.778;17.806;2022-09-24T08:56:52;6.63;;;3.50;;
47167;SDS011;32931;47.778;17.806;2022-09-24T08:59:23;4.28;;;2.90;;
47167;SDS011;32931;47.778;17.806;2022-09-24T09:07:30;6.28;;;2.75;;
47167;SDS011;32931;47.778;17.806;2022-09-24T09:10:25;4.15;;;2.60;;
47167;SDS011;32931;47.778;17.806;2022-09-24T09:13:04;5.32;;;2.92;;
47167;SDS011;32931;47.778;17.806;2022-09-24T09:15:42;13.43;;;3.35;;
47167;SDS011;32931;47.778;17.806;2022-09-24T09:18:13;12.35;;;3.35;;
47167;SDS011;32931;47.778;17.806;2022-09-24T09:20:46;7.78;;;3.47;;
47167;SDS011;32931;47.778;17.806;2022-09-24T09:23:21;6.40;;;2.72;;
47167;SDS011;32931;47.778;17.806;2022-09-24T09:25:56;17.23;;;6.32;;
47167;SDS011;32931;47.778;17.806;2022-09-24T09:28:25;26.77;;;14.43;;
47167;SDS011;32931;47.778;17.806;2022-09-24T09:33:37;7.22;;;4.00;;
47167;SDS011;32931;47.778;17.806;2022-09-24T09:36:18;10.68;;;4.38;;
47167;SDS011;32931;47.778;17.806;2022-09-24T09:44:47;24.25;;;12.95;;
47167;SDS011;32931;47.778;17.806;2022-09-24T09:50:12;4.15;;;2.03;;
47167;SDS011;32931;47.778;17.806;2022-09-24T09:52:54;2.90;;;1.63;;
47167;SDS011;32931;47.778;17.806;2022-09-24T09:55:22;4.90;;;2.20;;
47167;SDS011;32931;47.778;17.806;2022-09-24T09:57:52;4.97;;;1.83;;
47167;SDS011;32931;47.778;17.806;2022-09-24T10:00:35;6.17;;;1.87;;
47167;SDS011;32931;47.778;17.806;2022-09-24T10:03:02;7.07;;;2.05;;
47167;SDS011;32931;47.778;17.806;2022-09-24T10:05:28;5.88;;;1.73;;
47167;SDS011;32931;47.778;17.806;2022-09-24T10:07:55;4.38;;;2.50;;
47167;SDS011;32931;47.778;17.806;2022-09-24T10:10:27;4.45;;;1.90;;
47167;SDS011;32931;47.778;17.806;2022-09-24T10:15:33;4.05;;;1.38;;
47167;SDS011;32931;47.778;17.806;2022-09-24T10:18:05;3.45;;;1.70;;
47167;SDS011;32931;47.778;17.806;2022-09-24T10:20:35;5.60;;;1.55;;
47167;SDS011;32931;47.778;17.806;2022-09-24T10:23:02;6.00;;;1.63;;
47167;SDS011;32931;47.778;17.806;2022-09-24T10:25:32;5.18;;;1.35;;
47167;SDS011;32931;47.778;17.806;2022-09-24T10:28:05;8.57;;;1.67;;
47167;SDS011;32931;47.778;17.806;2022-09-24T10:30:58;4.82;;;1.50;;
47167;SDS011;32931;47.778;17.806;2022-09-24T10:33:45;3.75;;;1.50;;
47167;SDS011;32931;47.778;17.806;2022-09-24T10:36:15;3.58;;;1.35;;
47167;SDS011;32931;47.778;17.806;2022-09-24T10:38:48;2.75;;;1.58;;
47167;SDS011;32931;47.778;17.806;2022-09-24T10:41:51;4.70;;;1.60;;
47167;SDS011;32931;47.778;17.806;2022-09-24T10:44:20;4.13;;;1.48;;
47167;SDS011;32931;47.778;17.806;2022-09-24T10:46:49;6.68;;;1.42;;
47167;SDS011;32931;47.778;17.806;2022-09-24T11:00:27;2.05;;;1.20;;
47167;SDS011;32931;47.778;17.806;2022-09-24T11:06:13;3.25;;;1.70;;
47167;SDS011;32931;47.778;17.806;2022-09-24T11:24:28;9.82;;;1.20;;
47167;SDS011;32931;47.778;17.806;2022-09-24T11:35:41;2.97;;;1.30;;
47167;SDS011;32931;47.778;17.806;2022-09-24T11:43:29;3.22;;;1.30;;
47167;SDS011;32931;47.778;17.806;2022-09-24T11:51:47;10.98;;;1.48;;
47167;SDS011;32931;47.778;17.806;2022-09-24T11:54:35;3.83;;;1.48;;
47167;SDS011;32931;47.778;17.806;2022-09-24T11:57:12;2.67;;;1.30;;
47167;SDS011;32931;47.778;17.806;2022-09-24T12:02:30;9.93;;;1.50;;
47167;SDS011;32931;47.778;17.806;2022-09-24T12:05:36;6.45;;;1.60;;
47167;SDS011;32931;47.778;17.806;2022-09-24T12:08:17;7.20;;;1.42;;
47167;SDS011;32931;47.778;17.806;2022-09-24T12:13:51;6.07;;;1.80;;
47167;SDS011;32931;47.778;17.806;2022-09-24T12:16:29;5.93;;;1.60;;
47167;SDS011;32931;47.778;17.806;2022-09-24T12:19:08;2.08;;;1.30;;
47167;SDS011;32931;47.778;17.806;2022-09-24T12:21:42;13.90;;;2.25;;
47167;SDS011;32931;47.778;17.806;2022-09-24T12:26:46;4.32;;;1.50;;
47167;SDS011;32931;47.778;17.806;2022-09-24T12:32:22;7.82;;;1.70;;
47167;SDS011;32931;47.778;17.806;2022-09-24T12:35:25;3.80;;;1.73;;
47167;SDS011;32931;47.778;17.806;2022-09-24T12:46:19;7.32;;;1.95;;
47167;SDS011;32931;47.778;17.806;2022-09-24T12:49:49;7.60;;;1.80;;
47167;SDS011;32931;47.778;17.806;2022-09-24T12:52:14;9.05;;;1.60;;
47167;SDS011;32931;47.778;17.806;2022-09-24T12:54:43;2.55;;;1.75;;
47167;SDS011;32931;47.778;17.806;2022-09-24T12:59:50;3.72;;;1.50;;
47167;SDS011;32931;47.778;17.806;2022-09-24T13:02:20;3.63;;;1.58;;
47167;SDS011;32931;47.778;17.806;2022-09-24T13:05:24;5.68;;;1.40;;
47167;SDS011;32931;47.778;17.806;2022-09-24T13:10:25;2.88;;;1.55;;
47167;SDS011;32931;47.778;17.806;2022-09-24T13:12:52;6.25;;;1.52;;
47167;SDS011;32931;47.778;17.806;2022-09-24T13:15:25;2.47;;;1.35;;
47167;SDS011;32931;47.778;17.806;2022-09-24T13:20:36;3.95;;;1.65;;
47167;SDS011;32931;47.778;17.806;2022-09-24T13:23:12;5.63;;;1.65;;
47167;SDS011;32931;47.778;17.806;2022-09-24T13:25:40;52.22;;;5.88;;
47167;SDS011;32931;47.778;17.806;2022-09-24T13:28:20;4.93;;;1.52;;
47167;SDS011;32931;47.778;17.806;2022-09-24T13:31:16;3.58;;;1.60;;
47167;SDS011;32931;47.778;17.806;2022-09-24T13:33:48;8.10;;;1.98;;
47167;SDS011;32931;47.778;17.806;2022-09-24T13:36:23;6.03;;;1.47;;
47167;SDS011;32931;47.778;17.806;2022-09-24T13:38:55;4.50;;;1.50;;
47167;SDS011;32931;47.778;17.806;2022-09-24T13:41:44;3.28;;;1.70;;
47167;SDS011;32931;47.778;17.806;2022-09-24T13:44:22;4.38;;;1.77;;
47167;SDS011;32931;47.778;17.806;2022-09-24T13:47:15;3.38;;;1.48;;
47167;SDS011;32931;47.778;17.806;2022-09-24T13:49:45;6.85;;;1.73;;
47167;SDS011;32931;47.778;17.806;2022-09-24T13:55:05;7.85;;;1.60;;
47167;SDS011;32931;47.778;17.806;2022-09-24T13:57:41;4.43;;;1.77;;
47167;SDS011;32931;47.778;17.806;2022-09-24T14:02:54;25.80;;;2.38;;
47167;SDS011;32931;47.778;17.806;2022-09-24T14:05:39;6.43;;;1.50;;
47167;SDS011;32931;47.778;17.806;2022-09-24T14:08:06;7.78;;;1.80;;
47167;SDS011;32931;47.778;17.806;2022-09-24T14:10:37;5.63;;;1.50;;
47167;SDS011;32931;47.778;17.806;2022-09-24T14:15:34;4.82;;;1.70;;
47167;SDS011;32931;47.778;17.806;2022-09-24T14:18:01;3.03;;;1.80;;
47167;SDS011;32931;47.778;17.806;2022-09-24T14:20:32;3.88;;;1.90;;
47167;SDS011;32931;47.778;17.806;2022-09-24T14:22:59;9.02;;;2.45;;
47167;SDS011;32931;47.778;17.806;2022-09-24T14:25:29;28.27;;;2.35;;
47167;SDS011;32931;47.778;17.806;2022-09-24T14:28:01;12.77;;;2.75;;
47167;SDS011;32931;47.778;17.806;2022-09-24T14:30:29;7.38;;;2.15;;
47167;SDS011;32931;47.778;17.806;2022-09-24T14:33:05;7.85;;;2.33;;
47167;SDS011;32931;47.778;17.806;2022-09-24T14:35:38;24.13;;;2.80;;
47167;SDS011;32931;47.778;17.806;2022-09-24T14:40:39;4.13;;;1.73;;
47167;SDS011;32931;47.778;17.806;2022-09-24T14:43:14;6.30;;;2.30;;
47167;SDS011;32931;47.778;17.806;2022-09-24T14:45:48;7.68;;;2.58;;
47167;SDS011;32931;47.778;17.806;2022-09-24T14:50:45;9.88;;;2.95;;
47167;SDS011;32931;47.778;17.806;2022-09-24T14:55:52;8.50;;;2.30;;
47167;SDS011;32931;47.778;17.806;2022-09-24T14:58:23;10.70;;;2.47;;
47167;SDS011;32931;47.778;17.806;2022-09-24T15:01:31;15.25;;;2.90;;
47167;SDS011;32931;47.778;17.806;2022-09-24T15:03:58;20.15;;;4.40;;
47167;SDS011;32931;47.778;17.806;2022-09-24T15:06:28;9.30;;;3.60;;
47167;SDS011;32931;47.778;17.806;2022-09-24T15:11:52;10.70;;;3.42;;
47167;SDS011;32931;47.778;17.806;2022-09-24T15:14:20;15.23;;;4.55;;
47167;SDS011;32931;47.778;17.806;2022-09-24T15:16:52;6.20;;;3.42;;
47167;SDS011;32931;47.778;17.806;2022-09-24T15:19:20;14.20;;;3.13;;
47167;SDS011;32931;47.778;17.806;2022-09-24T15:21:48;3.95;;;2.20;;
47167;SDS011;32931;47.778;17.806;2022-09-24T15:24:17;9.25;;;2.30;;
47167;SDS011;32931;47.778;17.806;2022-09-24T15:26:45;52.90;;;3.05;;
47167;SDS011;32931;47.778;17.806;2022-09-24T15:29:26;23.33;;;2.20;;
47167;SDS011;32931;47.778;17.806;2022-09-24T15:31:53;6.43;;;1.70;;
47167;SDS011;32931;47.778;17.806;2022-09-24T15:34:21;3.70;;;1.52;;
47167;SDS011;32931;47.778;17.806;2022-09-24T15:36:48;17.27;;;2.10;;
47167;SDS011;32931;47.778;17.806;2022-09-24T15:39:19;16.60;;;2.60;;
47167;SDS011;32931;47.778;17.806;2022-09-24T15:41:46;7.70;;;2.15;;
47167;SDS011;32931;47.778;17.806;2022-09-24T15:44:16;10.73;;;2.50;;
47167;SDS011;32931;47.778;17.806;2022-09-24T15:46:47;6.03;;;1.80;;
47167;SDS011;32931;47.778;17.806;2022-09-24T15:49:16;3.72;;;1.65;;
47167;SDS011;32931;47.778;17.806;2022-09-24T15:51:47;8.13;;;2.00;;
47167;SDS011;32931;47.778;17.806;2022-09-24T15:54:16;16.17;;;4.18;;
47167;SDS011;32931;47.778;17.806;2022-09-24T15:56:42;26.20;;;3.00;;
47167;SDS011;32931;47.778;17.806;2022-09-24T15:59:14;31.33;;;7.47;;
47167;SDS011;32931;47.778;17.806;2022-09-24T16:01:40;6.80;;;3.30;;
47167;SDS011;32931;47.778;17.806;2022-09-24T16:04:08;4.55;;;2.50;;
47167;SDS011;32931;47.778;17.806;2022-09-24T16:06:36;4.05;;;2.25;;
47167;SDS011;32931;47.778;17.806;2022-09-24T16:09:03;8.15;;;2.33;;
47167;SDS011;32931;47.778;17.806;2022-09-24T16:11:30;2.80;;;2.15;;
47167;SDS011;32931;47.778;17.806;2022-09-24T16:13:56;6.85;;;2.22;;
47167;SDS011;32931;47.778;17.806;2022-09-24T16:16:22;11.82;;;2.40;;
47167;SDS011;32931;47.778;17.806;2022-09-24T16:18:49;3.97;;;2.30;;
47167;SDS011;32931;47.778;17.806;2022-09-24T16:21:15;4.43;;;2.40;;
47167;SDS011;32931;47.778;17.806;2022-09-24T16:23:41;11.57;;;2.35;;
47167;SDS011;32931;47.778;17.806;2022-09-24T16:26:07;8.48;;;2.38;;
47167;SDS011;32931;47.778;17.806;2022-09-24T16:28:34;16.45;;;7.63;;
47167;SDS011;32931;47.778;17.806;2022-09-24T16:31:06;14.93;;;9.90;;
47167;SDS011;32931;47.778;17.806;2022-09-24T16:33:36;4.95;;;2.58;;
47167;SDS011;32931;47.778;17.806;2022-09-24T16:36:06;12.88;;;2.72;;
47167;SDS011;32931;47.778;17.806;2022-09-24T16:38:33;6.55;;;2.53;;
47167;SDS011;32931;47.778;17.806;2022-09-24T16:41:03;8.32;;;2.70;;
47167;SDS011;32931;47.778;17.806;2022-09-24T16:43:30;8.13;;;2.42;;
47167;SDS011;32931;47.778;17.806;2022-09-24T16:46:04;11.65;;;2.72;;
47167;SDS011;32931;47.778;17.806;2022-09-24T16:48:32;13.18;;;3.28;;
47167;SDS011;32931;47.778;17.806;2022-09-24T16:51:09;10.20;;;2.60;;
47167;SDS011;32931;47.778;17.806;2022-09-24T16:53:36;18.80;;;3.00;;
47167;SDS011;32931;47.778;17.806;2022-09-24T16:56:03;19.50;;;3.25;;
47167;SDS011;32931;47.778;17.806;2022-09-24T16:58:34;19.88;;;3.00;;
47167;SDS011;32931;47.778;17.806;2022-09-24T17:01:07;11.40;;;2.58;;
47167;SDS011;32931;47.778;17.806;2022-09-24T17:03:35;11.85;;;2.70;;
47167;SDS011;32931;47.778;17.806;2022-09-24T17:06:02;18.55;;;2.78;;
47167;SDS011;32931;47.778;17.806;2022-09-24T17:08:29;11.77;;;2.78;;
47167;SDS011;32931;47.778;17.806;2022-09-24T17:11:15;24.40;;;3.67;;
47167;SDS011;32931;47.778;17.806;2022-09-24T17:13:42;15.07;;;3.00;;
47167;SDS011;32931;47.778;17.806;2022-09-24T17:16:08;35.70;;;3.90;;
47167;SDS011;32931;47.778;17.806;2022-09-24T17:18:35;28.48;;;3.78;;
47167;SDS011;32931;47.778;17.806;2022-09-24T17:21:05;21.65;;;3.22;;
47167;SDS011;32931;47.778;17.806;2022-09-24T17:23:33;63.60;;;3.90;;